createdAt,value
2022-12-25T00:01:22.689Z,92.78
2022-12-25T00:03:51.491Z,93.78
2022-12-25T00:06:19.864Z,92.65
2022-12-25T00:08:53.107Z,91.10
2022-12-25T00:11:24.465Z,89.70
2022-12-25T00:13:53.277Z,88.80
2022-12-25T00:16:34.199Z,88.40
2022-12-25T00:19:02.786Z,92.20
2022-12-25T00:21:33.612Z,89.30
2022-12-25T00:24:02.845Z,88.13
2022-12-25T00:26:36.993Z,90.10
2022-12-25T00:29:13.788Z,88.55
2022-12-25T00:31:40.874Z,88.55
2022-12-25T00:34:19.861Z,91.78
2022-12-25T00:36:53.736Z,92.25
2022-12-25T00:39:24.545Z,89.35
2022-12-25T00:42:10.132Z,89.55
2022-12-25T00:44:37.312Z,74.20
2022-12-25T00:47:07.807Z,76.18
2022-12-25T00:49:38.635Z,82.43
2022-12-25T00:52:07.505Z,83.22
2022-12-25T00:54:36.388Z,82.45
2022-12-25T00:57:04.477Z,82.07
2022-12-25T00:59:36.163Z,73.43
2022-12-25T01:02:22.596Z,66.25
2022-12-25T01:04:57.628Z,58.97
2022-12-25T01:07:28.340Z,56.90
2022-12-25T01:10:13.773Z,55.20
2022-12-25T01:12:43.056Z,54.97
2022-12-25T01:15:11.320Z,58.65
2022-12-25T01:17:38.254Z,60.38
2022-12-25T01:20:08.615Z,75.03
2022-12-25T01:22:35.572Z,78.47
2022-12-25T01:25:02.465Z,80.45
2022-12-25T01:27:30.377Z,74.88
2022-12-25T01:32:40.541Z,77.93
2022-12-25T01:35:08.329Z,61.03
2022-12-25T01:37:35.330Z,58.17
2022-12-25T01:40:02.321Z,57.97
2022-12-25T01:42:29.542Z,56.38
2022-12-25T01:45:38.173Z,59.38
2022-12-25T01:48:09.122Z,54.05
2022-12-25T01:51:00.888Z,67.07
2022-12-25T01:53:30.645Z,71.05
2022-12-25T01:56:04.819Z,71.97
2022-12-25T01:58:35.109Z,73.40
2022-12-25T02:01:03.083Z,63.10
2022-12-25T02:03:30.071Z,62.22
2022-12-25T02:06:01.067Z,60.13
2022-12-25T02:08:29.661Z,71.05
2022-12-25T02:10:56.571Z,59.53
2022-12-25T02:13:23.385Z,63.13
2022-12-25T02:16:17.356Z,54.70
2022-12-25T02:18:51.082Z,59.70
2022-12-25T02:21:39.155Z,65.60
2022-12-25T02:24:24.222Z,66.55
2022-12-25T02:27:00.844Z,69.70
2022-12-25T02:29:33.898Z,72.63
2022-12-25T02:32:38.379Z,72.38
2022-12-25T02:35:24.372Z,59.10
2022-12-25T02:38:16.305Z,60.33
2022-12-25T02:40:50.453Z,76.13
2022-12-25T02:43:57.805Z,66.63
2022-12-25T02:46:45.063Z,59.85
2022-12-25T02:49:37.911Z,76.07
2022-12-25T02:55:28.495Z,65.65
2022-12-25T02:58:20.504Z,61.25
2022-12-25T03:01:11.121Z,77.90
2022-12-25T03:04:01.971Z,77.82
2022-12-25T03:06:44.294Z,82.97
2022-12-25T03:09:36.468Z,85.57
2022-12-25T03:12:13.797Z,77.55
2022-12-25T03:14:59.764Z,82.47
2022-12-25T03:17:27.108Z,85.50
2022-12-25T03:20:13.053Z,86.00
2022-12-25T03:23:01.863Z,93.60
2022-12-25T03:25:48.074Z,91.93
2022-12-25T03:28:15.453Z,98.10
2022-12-25T03:31:11.793Z,100.72
2022-12-25T03:34:12.706Z,94.40
2022-12-25T03:37:18.208Z,100.72
2022-12-25T03:40:52.534Z,100.97
2022-12-25T03:43:49.805Z,98.00
2022-12-25T03:46:38.190Z,98.25
2022-12-25T03:49:47.358Z,99.13
2022-12-25T03:52:37.200Z,70.90
2022-12-25T03:55:27.891Z,87.53
2022-12-25T03:58:13.678Z,87.82
2022-12-25T04:01:02.613Z,88.07
2022-12-25T04:03:49.144Z,89.68
2022-12-25T04:06:35.732Z,91.78
2022-12-25T04:09:22.656Z,90.40
2022-12-25T04:12:08.445Z,82.40
2022-12-25T04:14:58.299Z,88.72
2022-12-25T04:17:44.108Z,85.40
2022-12-25T04:20:29.957Z,82.47
2022-12-25T04:23:15.705Z,81.10
2022-12-25T04:26:03.661Z,71.65
2022-12-25T04:28:54.199Z,73.95
2022-12-25T04:31:39.832Z,72.60
2022-12-25T04:34:25.730Z,73.35
2022-12-25T04:36:52.669Z,73.53
2022-12-25T04:39:19.826Z,63.40
2022-12-25T04:41:47.130Z,71.85
2022-12-25T04:44:14.218Z,71.85
2022-12-25T04:46:41.391Z,74.72
2022-12-25T04:49:08.495Z,73.22
2022-12-25T04:51:38.856Z,73.93
2022-12-25T04:54:07.534Z,75.25
2022-12-25T04:56:35.657Z,73.55
2022-12-25T04:59:06.741Z,75.30
2022-12-25T05:01:33.993Z,75.35
2022-12-25T05:04:00.982Z,76.57
2022-12-25T05:06:29.618Z,79.88
2022-12-25T05:09:00.314Z,79.53
2022-12-25T05:11:27.896Z,78.43
2022-12-25T05:13:54.889Z,80.85
2022-12-25T05:16:22.170Z,85.93
2022-12-25T05:18:51.428Z,81.80
2022-12-25T05:21:19.000Z,86.13
2022-12-25T05:23:48.893Z,89.05
2022-12-25T05:26:18.075Z,95.22
2022-12-25T05:28:45.113Z,91.43
2022-12-25T05:31:12.076Z,89.75
2022-12-25T05:33:39.105Z,95.13
2022-12-25T05:36:07.977Z,88.65
2022-12-25T05:38:35.145Z,96.03
2022-12-25T05:41:02.182Z,75.22
2022-12-25T05:43:29.809Z,91.90
2022-12-25T05:45:56.668Z,67.10
2022-12-25T05:48:23.679Z,88.03
2022-12-25T05:50:51.886Z,81.57
2022-12-25T05:53:18.786Z,91.15
2022-12-25T05:55:47.127Z,85.70
2022-12-25T05:58:13.961Z,90.15
2022-12-25T06:00:43.783Z,90.82
2022-12-25T06:03:10.782Z,80.25
2022-12-25T06:05:40.744Z,70.88
2022-12-25T06:08:07.632Z,90.47
2022-12-25T06:10:34.399Z,91.25
2022-12-25T06:13:01.275Z,85.38
2022-12-25T06:15:28.116Z,85.55
2022-12-25T06:17:58.009Z,88.32
2022-12-25T06:20:24.913Z,90.18
2022-12-25T06:22:54.609Z,88.22
2022-12-25T06:25:21.496Z,85.60
2022-12-25T06:27:48.274Z,87.63
2022-12-25T06:30:15.303Z,88.50
2022-12-25T06:32:42.215Z,88.20
2022-12-25T06:35:09.204Z,86.65
2022-12-25T06:37:37.346Z,84.80
2022-12-25T06:40:04.637Z,84.53
2022-12-25T06:42:31.777Z,85.32
2022-12-25T06:44:58.553Z,87.35
2022-12-25T06:47:25.346Z,83.13
2022-12-25T06:49:52.263Z,87.90
2022-12-25T06:52:19.198Z,86.97
2022-12-25T06:54:47.489Z,82.07
2022-12-25T06:57:14.484Z,81.10
2022-12-25T06:59:41.347Z,81.60
2022-12-25T07:02:17.525Z,75.65
2022-12-25T07:04:45.033Z,74.60
2022-12-25T07:07:12.097Z,75.47
2022-12-25T07:09:39.459Z,77.90
2022-12-25T07:12:08.076Z,78.13
2022-12-25T07:14:35.187Z,81.30
2022-12-25T07:17:02.260Z,80.43
2022-12-25T07:19:29.354Z,81.63
2022-12-25T07:21:56.872Z,77.85
2022-12-25T07:24:26.736Z,75.32
2022-12-25T07:26:54.111Z,77.32
2022-12-25T07:29:24.310Z,80.25
2022-12-25T07:31:53.444Z,78.88
2022-12-25T07:34:30.650Z,77.25
2022-12-25T07:37:00.693Z,76.50
2022-12-25T07:39:30.898Z,76.43
2022-12-25T07:42:02.166Z,72.43
2022-12-25T07:44:31.153Z,77.88
2022-12-25T07:46:59.616Z,74.20
2022-12-25T07:49:26.509Z,78.15
2022-12-25T07:51:53.494Z,72.22
2022-12-25T07:54:21.047Z,54.67
2022-12-25T07:56:52.179Z,55.33
2022-12-25T07:59:20.115Z,53.50
2022-12-25T08:01:47.179Z,67.38
2022-12-25T08:04:14.167Z,64.10
2022-12-25T08:06:41.124Z,72.10
2022-12-25T08:09:15.174Z,71.90
2022-12-25T08:11:49.343Z,51.90
2022-12-25T08:14:16.349Z,53.00
2022-12-25T08:16:47.250Z,55.17
2022-12-25T08:19:15.497Z,66.95
2022-12-25T08:21:42.511Z,53.28
2022-12-25T08:24:11.136Z,49.20
2022-12-25T08:26:39.586Z,51.13
2022-12-25T08:29:06.432Z,61.22
2022-12-25T08:31:38.294Z,66.63
2022-12-25T08:34:09.694Z,67.88
2022-12-25T08:36:37.417Z,61.60
2022-12-25T08:39:08.199Z,63.42
2022-12-25T08:41:36.836Z,61.40
2022-12-25T08:44:05.014Z,61.17
2022-12-25T08:46:32.386Z,54.03
2022-12-25T08:49:00.151Z,61.00
2022-12-25T08:51:33.524Z,55.35
2022-12-25T08:54:01.058Z,60.92
2022-12-25T08:56:30.043Z,59.92
2022-12-25T08:58:59.340Z,59.50
2022-12-25T09:01:27.974Z,49.15
2022-12-25T09:03:55.119Z,50.70
2022-12-25T09:06:22.526Z,49.28
2022-12-25T09:08:50.060Z,48.85
2022-12-25T09:11:22.500Z,48.83
2022-12-25T09:13:49.499Z,50.53
2022-12-25T09:16:21.078Z,49.35
2022-12-25T09:18:48.672Z,50.53
2022-12-25T09:21:16.804Z,48.85
2022-12-25T09:23:44.303Z,49.47
2022-12-25T09:26:14.264Z,49.25
2022-12-25T09:28:45.339Z,71.18
2022-12-25T09:31:15.588Z,70.68
2022-12-25T09:33:44.530Z,73.07
2022-12-25T09:36:12.964Z,53.30
2022-12-25T09:38:42.933Z,55.75
2022-12-25T09:41:50.091Z,56.47
2022-12-25T09:44:26.145Z,53.13
2022-12-25T09:47:24.425Z,65.93
2022-12-25T09:50:11.630Z,56.15
2022-12-25T09:53:01.333Z,53.60
2022-12-25T09:55:31.926Z,64.65
2022-12-25T09:58:02.322Z,50.88
2022-12-25T10:00:38.923Z,53.63
2022-12-25T10:03:31.909Z,61.83
2022-12-25T10:06:05.773Z,58.83
2022-12-25T10:09:11.137Z,52.30
2022-12-25T10:12:00.439Z,52.65
2022-12-25T10:14:32.230Z,58.78
2022-12-25T10:17:12.699Z,58.78
2022-12-25T10:19:52.079Z,50.35
2022-12-25T10:22:47.706Z,56.60
2022-12-25T10:25:24.970Z,51.80
2022-12-25T10:28:20.098Z,52.47
2022-12-25T10:30:51.012Z,54.38
2022-12-25T10:33:18.000Z,55.42
2022-12-25T10:35:45.641Z,53.70
2022-12-25T10:38:16.188Z,53.13
2022-12-25T10:41:14.371Z,52.67
2022-12-25T10:43:49.705Z,52.13
2022-12-25T10:46:17.798Z,53.60
2022-12-25T10:49:03.763Z,47.08
2022-12-25T10:51:39.333Z,46.60
2022-12-25T10:54:28.268Z,52.10
2022-12-25T10:57:05.297Z,52.03
2022-12-25T10:59:42.329Z,48.88
2022-12-25T11:02:35.272Z,53.17
2022-12-25T11:05:08.586Z,46.13
2022-12-25T11:07:46.973Z,51.53
2022-12-25T11:10:25.305Z,57.08
2022-12-25T11:12:53.781Z,56.60
2022-12-25T11:15:32.887Z,56.40
2022-12-25T11:18:02.572Z,48.40
2022-12-25T11:20:30.412Z,55.55
2022-12-25T11:23:00.264Z,53.85
2022-12-25T11:25:28.456Z,52.03
2022-12-25T11:28:14.323Z,53.85
2022-12-25T11:30:41.630Z,50.28
2022-12-25T11:33:14.300Z,49.75
2022-12-25T11:35:51.178Z,50.20
2022-12-25T11:38:18.655Z,47.58
2022-12-25T11:40:57.799Z,49.88
2022-12-25T11:43:34.359Z,52.97
2022-12-25T11:46:11.178Z,43.83
2022-12-25T11:48:44.998Z,44.28
2022-12-25T11:51:15.388Z,51.95
2022-12-25T11:53:54.474Z,48.50
2022-12-25T11:56:28.399Z,49.70
2022-12-25T11:59:00.897Z,45.08
2022-12-25T12:04:01.196Z,47.67
2022-12-25T12:07:03.578Z,50.33
2022-12-25T12:09:42.596Z,40.25
2022-12-25T12:12:23.838Z,40.30
2022-12-25T12:15:25.033Z,50.42
2022-12-25T12:17:53.529Z,38.90
2022-12-25T12:20:34.445Z,49.55
2022-12-25T12:23:15.771Z,38.28
2022-12-25T12:25:45.224Z,39.00
2022-12-25T12:28:21.570Z,48.58
2022-12-25T12:31:05.353Z,48.00
2022-12-25T12:33:38.173Z,51.28
2022-12-25T12:36:06.404Z,50.83
2022-12-25T12:38:35.480Z,49.22
2022-12-25T12:41:05.967Z,49.67
2022-12-25T12:43:41.319Z,47.63
2022-12-25T12:46:27.689Z,48.55
2022-12-25T12:49:20.315Z,38.63
2022-12-25T12:51:47.492Z,40.95
2022-12-25T12:54:21.102Z,47.88
2022-12-25T12:57:23.615Z,38.50
2022-12-25T12:59:50.496Z,47.83
2022-12-25T13:02:33.089Z,37.17
2022-12-25T13:07:52.051Z,47.38
2022-12-25T13:10:30.345Z,38.75
2022-12-25T13:13:01.946Z,46.90
2022-12-25T13:15:33.164Z,44.23
2022-12-25T13:18:07.570Z,37.80
2022-12-25T13:20:54.326Z,34.35
2022-12-25T13:23:30.640Z,34.40
2022-12-25T13:26:01.472Z,41.05
2022-12-25T13:28:33.875Z,42.28
2022-12-25T13:31:18.601Z,43.60
2022-12-25T13:34:21.055Z,35.22
2022-12-25T13:36:50.628Z,34.80
2022-12-25T13:39:25.695Z,37.75
2022-12-25T13:42:15.476Z,39.35
2022-12-25T13:47:36.028Z,33.08
2022-12-25T13:50:26.281Z,34.45
2022-12-25T13:52:56.529Z,33.67
2022-12-25T13:55:30.782Z,35.25
2022-12-25T13:58:05.029Z,44.00
2022-12-25T14:00:39.722Z,35.03
2022-12-25T14:03:15.307Z,34.03
2022-12-25T14:05:43.710Z,33.30
2022-12-25T14:08:16.342Z,43.63
2022-12-25T14:13:14.974Z,45.80
2022-12-25T14:15:43.315Z,46.58
2022-12-25T14:18:17.479Z,45.70
2022-12-25T14:21:05.299Z,34.03
2022-12-25T14:23:46.385Z,34.67
2022-12-25T14:26:18.003Z,35.00
2022-12-25T14:28:58.156Z,34.30
2022-12-25T14:31:25.536Z,33.92
2022-12-25T14:33:54.210Z,48.75
2022-12-25T14:36:21.664Z,34.10
2022-12-25T14:39:03.930Z,34.30
2022-12-25T14:41:42.096Z,33.70
2022-12-25T14:44:37.205Z,41.42
2022-12-25T14:47:06.821Z,36.20
2022-12-25T14:49:33.865Z,33.72
2022-12-25T14:52:10.273Z,46.03
2022-12-25T14:54:37.705Z,42.20
2022-12-25T14:57:07.122Z,35.65
2022-12-25T14:59:34.201Z,34.58
2022-12-25T15:02:04.435Z,33.03
2022-12-25T15:04:32.682Z,35.78
2022-12-25T15:07:07.493Z,33.47
2022-12-25T15:09:36.264Z,33.85
2022-12-25T15:12:03.473Z,46.13
2022-12-25T15:14:31.881Z,43.03
2022-12-25T15:17:01.596Z,34.35
2022-12-25T15:19:37.740Z,43.15
2022-12-25T15:22:05.691Z,36.80
2022-12-25T15:24:35.614Z,34.85
2022-12-25T15:27:02.595Z,43.33
2022-12-25T15:30:07.970Z,32.47
2022-12-25T15:32:19.587Z,40.88
2022-12-25T15:34:49.940Z,44.95
2022-12-25T15:37:18.588Z,35.40
2022-12-25T15:39:46.203Z,44.85
2022-12-25T15:42:21.530Z,33.80
2022-12-25T15:44:48.530Z,32.70
2022-12-25T15:47:17.187Z,33.17
2022-12-25T15:49:44.126Z,34.47
2022-12-25T15:52:15.107Z,33.95
2022-12-25T15:54:42.064Z,41.33
2022-12-25T15:57:21.411Z,35.67
2022-12-25T15:59:49.434Z,42.17
2022-12-25T16:02:20.771Z,44.88
2022-12-25T16:04:51.319Z,47.87
2022-12-25T16:07:20.767Z,43.90
2022-12-25T16:09:48.360Z,34.45
2022-12-25T16:12:15.809Z,33.63
2022-12-25T16:14:42.978Z,45.95
2022-12-25T16:17:15.807Z,45.80
2022-12-25T16:19:45.042Z,47.97
2022-12-25T16:22:25.834Z,48.55
2022-12-25T16:24:55.823Z,47.10
2022-12-25T16:27:23.242Z,40.40
2022-12-25T16:29:52.341Z,34.03
2022-12-25T16:32:20.473Z,34.50
2022-12-25T16:34:50.005Z,35.97
2022-12-25T16:37:23.302Z,33.28
2022-12-25T16:39:53.069Z,34.92
2022-12-25T16:42:20.099Z,45.58
2022-12-25T16:44:52.448Z,37.95
2022-12-25T16:47:19.414Z,35.60
2022-12-25T16:49:48.109Z,48.63
2022-12-25T16:52:15.322Z,46.30
2022-12-25T16:54:44.074Z,36.67
2022-12-25T16:57:11.058Z,35.35
2022-12-25T16:59:38.321Z,46.53
2022-12-25T17:02:05.275Z,34.72
2022-12-25T17:04:34.048Z,36.47
2022-12-25T17:07:01.408Z,44.70
2022-12-25T17:09:28.662Z,43.95
2022-12-25T17:11:58.020Z,41.85
2022-12-25T17:14:25.940Z,43.20
2022-12-25T17:16:53.426Z,37.28
2022-12-25T17:19:24.097Z,39.60
2022-12-25T17:21:54.046Z,40.97
2022-12-25T17:24:21.853Z,44.97
2022-12-25T17:26:50.930Z,38.85
2022-12-25T17:29:21.899Z,46.42
2022-12-25T17:31:49.980Z,45.43
2022-12-25T17:34:20.453Z,43.92
2022-12-25T17:36:47.984Z,37.38
2022-12-25T17:39:15.052Z,38.08
2022-12-25T17:41:42.120Z,44.60
2022-12-25T17:44:12.418Z,55.22
2022-12-25T17:46:39.719Z,48.83
2022-12-25T17:49:09.416Z,36.72
2022-12-25T17:51:36.430Z,46.95
2022-12-25T17:54:07.218Z,46.63
2022-12-25T17:56:35.617Z,35.08
2022-12-25T17:59:06.985Z,36.55
2022-12-25T18:01:35.477Z,43.58
2022-12-25T18:04:06.437Z,31.63
2022-12-25T18:06:35.707Z,32.97
2022-12-25T18:09:10.695Z,34.05
2022-12-25T18:11:41.542Z,30.95
2022-12-25T18:14:11.772Z,41.60
2022-12-25T18:16:40.912Z,43.95
2022-12-25T18:19:08.592Z,40.22
2022-12-25T18:21:35.716Z,43.72
2022-12-25T18:24:05.079Z,32.22
2022-12-25T18:26:34.525Z,45.90
2022-12-25T18:29:04.298Z,45.35
2022-12-25T18:31:32.722Z,46.40
2022-12-25T18:34:00.358Z,43.55
2022-12-25T18:36:29.586Z,48.30
2022-12-25T18:38:58.123Z,34.33
2022-12-25T18:41:28.963Z,49.35
2022-12-25T18:43:56.390Z,43.90
2022-12-25T18:46:26.481Z,47.78
2022-12-25T18:48:56.973Z,47.42
2022-12-25T18:51:24.447Z,44.55
2022-12-25T18:53:51.746Z,48.42
2022-12-25T18:56:24.258Z,37.92
2022-12-25T18:58:51.050Z,42.95
2022-12-25T19:01:23.352Z,46.22
2022-12-25T19:06:27.879Z,46.33
2022-12-25T19:08:56.144Z,49.03
2022-12-25T19:11:26.519Z,46.38
2022-12-25T19:13:53.445Z,39.58
2022-12-25T19:16:20.369Z,44.92
2022-12-25T19:18:47.230Z,46.63
2022-12-25T19:21:16.202Z,47.55
2022-12-25T19:23:44.683Z,47.42
2022-12-25T19:26:13.217Z,45.45
2022-12-25T19:28:40.829Z,40.00
2022-12-25T19:31:10.129Z,43.30
2022-12-25T19:33:39.401Z,44.78
2022-12-25T19:36:10.904Z,33.65
2022-12-25T19:38:39.228Z,43.87
2022-12-25T19:41:08.234Z,45.97
2022-12-25T19:43:42.903Z,42.97
2022-12-25T19:46:26.306Z,40.88
2022-12-25T19:48:53.933Z,38.00
2022-12-25T19:51:30.708Z,40.50
2022-12-25T19:53:59.908Z,40.28
2022-12-25T19:56:29.691Z,34.67
2022-12-25T19:58:58.732Z,35.40
2022-12-25T20:01:29.111Z,33.63
2022-12-25T20:03:59.196Z,33.15
2022-12-25T20:06:34.426Z,30.95
2022-12-25T20:09:09.277Z,30.58
2022-12-25T20:11:38.308Z,31.50
2022-12-25T20:14:07.671Z,30.63
2022-12-25T20:16:38.488Z,29.67
2022-12-25T20:19:07.122Z,29.50
2022-12-25T20:21:34.498Z,30.42
2022-12-25T20:24:02.729Z,28.85
2022-12-25T20:26:34.791Z,29.75
2022-12-25T20:29:04.717Z,28.55
2022-12-25T20:31:35.537Z,28.05
2022-12-25T20:34:27.107Z,28.60
2022-12-25T20:36:54.354Z,27.85
2022-12-25T20:39:24.655Z,30.00
2022-12-25T20:41:51.872Z,26.92
2022-12-25T20:44:20.042Z,26.92
2022-12-25T20:46:49.180Z,27.63
2022-12-25T20:49:16.120Z,28.40
2022-12-25T20:51:43.340Z,28.58
2022-12-25T20:54:11.336Z,30.45
2022-12-25T20:56:38.541Z,31.15
2022-12-25T20:59:08.767Z,29.98
2022-12-25T21:01:35.822Z,32.63
2022-12-25T21:04:03.351Z,32.00
2022-12-25T21:06:33.130Z,30.77
2022-12-25T21:09:00.485Z,31.92
2022-12-25T21:11:28.963Z,33.05
2022-12-25T21:13:56.118Z,33.97
2022-12-25T21:16:26.026Z,33.05
2022-12-25T21:18:54.893Z,31.75
2022-12-25T21:21:23.109Z,32.33
2022-12-25T21:23:57.397Z,30.75
2022-12-25T21:26:29.627Z,41.10
2022-12-25T21:29:00.716Z,43.63
2022-12-25T21:31:37.514Z,42.13
2022-12-25T21:34:05.815Z,46.65
2022-12-25T21:36:38.857Z,42.20
2022-12-25T21:39:09.281Z,48.80
2022-12-25T21:41:40.243Z,50.25
2022-12-25T21:44:09.271Z,50.63
2022-12-25T21:46:36.180Z,52.75
2022-12-25T21:49:04.290Z,51.17
2022-12-25T21:51:52.862Z,54.17
2022-12-25T21:54:24.817Z,50.67
2022-12-25T21:56:54.084Z,53.63
2022-12-25T21:59:22.230Z,55.42
2022-12-25T22:01:50.914Z,54.22
2022-12-25T22:04:22.065Z,54.00
2022-12-25T22:07:07.578Z,51.97
2022-12-25T22:09:34.861Z,53.65
2022-12-25T22:12:22.340Z,41.35
2022-12-25T22:14:55.464Z,59.60
2022-12-25T22:17:49.835Z,54.17
2022-12-25T22:20:40.794Z,56.50
2022-12-25T22:23:07.879Z,40.33
2022-12-25T22:25:37.857Z,44.17
2022-12-25T22:28:04.905Z,49.42
2022-12-25T22:30:32.098Z,54.60
2022-12-25T22:33:01.955Z,41.85
2022-12-25T22:35:29.023Z,54.67
2022-12-25T22:37:58.255Z,50.05
2022-12-25T22:40:25.215Z,47.08
2022-12-25T22:42:56.305Z,46.95
2022-12-25T22:45:33.221Z,46.85
2022-12-25T22:48:01.760Z,51.17
2022-12-25T22:50:29.432Z,46.45
2022-12-25T22:52:59.476Z,40.88
2022-12-25T22:55:30.402Z,48.47
2022-12-25T22:58:01.544Z,48.03
2022-12-25T23:00:28.689Z,50.60
2022-12-25T23:02:57.718Z,41.03
2022-12-25T23:05:25.359Z,45.85
2022-12-25T23:07:52.399Z,51.38
2022-12-25T23:10:19.356Z,44.00
2022-12-25T23:13:04.807Z,49.28
2022-12-25T23:15:32.795Z,43.78
2022-12-25T23:18:20.000Z,46.35
2022-12-25T23:21:07.026Z,47.13
2022-12-25T23:24:10.856Z,47.15
2022-12-25T23:26:38.133Z,41.53
2022-12-25T23:29:24.331Z,47.55
2022-12-25T23:31:53.860Z,44.08
2022-12-25T23:34:44.352Z,49.28
2022-12-25T23:37:14.634Z,47.10
2022-12-25T23:39:43.803Z,48.38
2022-12-25T23:42:20.536Z,48.65
2022-12-25T23:44:58.110Z,44.17
2022-12-25T23:47:28.038Z,44.45
2022-12-25T23:49:58.034Z,47.35
2022-12-25T23:52:49.451Z,38.40
2022-12-25T23:55:17.599Z,47.20
2022-12-25T23:58:00.494Z,42.65
